sensor_id;sensor_type;location;lat;lon;timestamp;temperature;humidity
17621;DHT22;8929;51.008;6.804;2022-12-05T00:03:44;5.30;99.90
17621;DHT22;8929;51.008;6.804;2022-12-05T00:06:10;5.30;99.90
17621;DHT22;8929;51.008;6.804;2022-12-05T00:08:35;5.30;99.90
17621;DHT22;8929;51.008;6.804;2022-12-05T00:11:01;5.30;99.90
17621;DHT22;8929;51.008;6.804;2022-12-05T00:13:26;5.30;99.90
17621;DHT22;8929;51.008;6.804;2022-12-05T00:15:52;5.30;99.90
17621;DHT22;8929;51.008;6.804;2022-12-05T00:18:17;5.30;99.90
17621;DHT22;8929;51.008;6.804;2022-12-05T00:20:43;5.30;99.90
17621;DHT22;8929;51.008;6.804;2022-12-05T00:23:09;5.30;99.90
17621;DHT22;8929;51.008;6.804;2022-12-05T00:25:34;5.30;99.90
17621;DHT22;8929;51.008;6.804;2022-12-05T00:28:00;5.30;99.90
17621;DHT22;8929;51.008;6.804;2022-12-05T00:30:25;5.30;99.90
17621;DHT22;8929;51.008;6.804;2022-12-05T00:32:51;5.30;99.90
17621;DHT22;8929;51.008;6.804;2022-12-05T00:35:16;5.30;99.90
17621;DHT22;8929;51.008;6.804;2022-12-05T00:37:42;5.30;99.90
17621;DHT22;8929;51.008;6.804;2022-12-05T00:40:07;5.30;99.90
17621;DHT22;8929;51.008;6.804;2022-12-05T00:42:33;5.30;99.90
17621;DHT22;8929;51.008;6.804;2022-12-05T00:44:58;5.30;99.90
17621;DHT22;8929;51.008;6.804;2022-12-05T00:47:24;5.40;99.90
17621;DHT22;8929;51.008;6.804;2022-12-05T00:49:49;5.40;99.90
17621;DHT22;8929;51.008;6.804;2022-12-05T00:52:15;5.40;99.90
17621;DHT22;8929;51.008;6.804;2022-12-05T00:54:40;5.40;99.90
17621;DHT22;8929;51.008;6.804;2022-12-05T00:57:06;5.40;99.90
17621;DHT22;8929;51.008;6.804;2022-12-05T00:59:31;5.40;99.90
17621;DHT22;8929;51.008;6.804;2022-12-05T01:01:57;5.40;99.90
17621;DHT22;8929;51.008;6.804;2022-12-05T01:04:23;5.40;99.90
17621;DHT22;8929;51.008;6.804;2022-12-05T01:06:49;5.40;99.90
17621;DHT22;8929;51.008;6.804;2022-12-05T01:09:16;5.40;99.90
17621;DHT22;8929;51.008;6.804;2022-12-05T01:11:42;5.40;99.90
17621;DHT22;8929;51.008;6.804;2022-12-05T01:14:08;5.40;99.90
17621;DHT22;8929;51.008;6.804;2022-12-05T01:16:34;5.40;99.90
17621;DHT22;8929;51.008;6.804;2022-12-05T01:19:01;5.40;99.90
17621;DHT22;8929;51.008;6.804;2022-12-05T01:21:27;5.40;99.90
17621;DHT22;8929;51.008;6.804;2022-12-05T01:23:52;5.40;99.90
17621;DHT22;8929;51.008;6.804;2022-12-05T01:26:19;5.40;99.90
17621;DHT22;8929;51.008;6.804;2022-12-05T01:28:45;5.40;99.90
17621;DHT22;8929;51.008;6.804;2022-12-05T01:31:27;5.40;99.90
17621;DHT22;8929;51.008;6.804;2022-12-05T01:33:53;5.40;99.90
17621;DHT22;8929;51.008;6.804;2022-12-05T01:36:19;5.40;99.90
17621;DHT22;8929;51.008;6.804;2022-12-05T01:38:45;5.30;99.90
17621;DHT22;8929;51.008;6.804;2022-12-05T01:41:12;5.30;99.90
17621;DHT22;8929;51.008;6.804;2022-12-05T01:46:22;5.30;99.90
17621;DHT22;8929;51.008;6.804;2022-12-05T01:48:47;5.30;99.90
17621;DHT22;8929;51.008;6.804;2022-12-05T01:51:13;5.30;99.90
17621;DHT22;8929;51.008;6.804;2022-12-05T01:53:39;5.40;99.90
17621;DHT22;8929;51.008;6.804;2022-12-05T01:56:05;5.40;99.90
17621;DHT22;8929;51.008;6.804;2022-12-05T01:58:31;5.40;99.90
17621;DHT22;8929;51.008;6.804;2022-12-05T02:00:58;5.30;99.90
17621;DHT22;8929;51.008;6.804;2022-12-05T02:03:23;5.30;99.90
17621;DHT22;8929;51.008;6.804;2022-12-05T02:05:49;5.30;99.90
17621;DHT22;8929;51.008;6.804;2022-12-05T02:08:16;5.30;99.90
17621;DHT22;8929;51.008;6.804;2022-12-05T02:10:47;5.20;99.90
17621;DHT22;8929;51.008;6.804;2022-12-05T02:13:22;5.30;99.90
17621;DHT22;8929;51.008;6.804;2022-12-05T02:18:46;5.30;99.90
17621;DHT22;8929;51.008;6.804;2022-12-05T02:31:42;5.20;99.90
17621;DHT22;8929;51.008;6.804;2022-12-05T02:34:09;5.20;99.90
17621;DHT22;8929;51.008;6.804;2022-12-05T02:36:39;5.10;99.90
17621;DHT22;8929;51.008;6.804;2022-12-05T02:39:13;5.10;99.90
17621;DHT22;8929;51.008;6.804;2022-12-05T02:41:40;5.10;99.90
17621;DHT22;8929;51.008;6.804;2022-12-05T02:44:23;5.00;99.90
17621;DHT22;8929;51.008;6.804;2022-12-05T02:46:51;5.00;99.90
17621;DHT22;8929;51.008;6.804;2022-12-05T02:49:19;4.90;99.90
17621;DHT22;8929;51.008;6.804;2022-12-05T02:51:47;4.80;99.90
17621;DHT22;8929;51.008;6.804;2022-12-05T02:54:18;4.80;99.90
17621;DHT22;8929;51.008;6.804;2022-12-05T02:56:45;4.70;99.90
17621;DHT22;8929;51.008;6.804;2022-12-05T02:59:10;4.70;99.90
17621;DHT22;8929;51.008;6.804;2022-12-05T03:01:36;4.60;99.90
17621;DHT22;8929;51.008;6.804;2022-12-05T03:04:03;4.60;99.90
17621;DHT22;8929;51.008;6.804;2022-12-05T03:06:39;4.60;99.90
17621;DHT22;8929;51.008;6.804;2022-12-05T03:11:37;4.50;99.90
17621;DHT22;8929;51.008;6.804;2022-12-05T03:14:04;4.50;99.90
17621;DHT22;8929;51.008;6.804;2022-12-05T03:16:33;4.50;99.90
17621;DHT22;8929;51.008;6.804;2022-12-05T03:19:01;4.50;99.90
17621;DHT22;8929;51.008;6.804;2022-12-05T03:21:30;4.50;99.90
17621;DHT22;8929;51.008;6.804;2022-12-05T03:24:03;4.50;99.90
17621;DHT22;8929;51.008;6.804;2022-12-05T03:26:48;4.50;99.90
17621;DHT22;8929;51.008;6.804;2022-12-05T03:29:25;4.50;99.90
17621;DHT22;8929;51.008;6.804;2022-12-05T03:32:00;4.50;99.90
17621;DHT22;8929;51.008;6.804;2022-12-05T03:40:05;4.40;99.90
17621;DHT22;8929;51.008;6.804;2022-12-05T03:42:33;4.40;99.90
17621;DHT22;8929;51.008;6.804;2022-12-05T03:45:07;4.40;99.90
17621;DHT22;8929;51.008;6.804;2022-12-05T03:47:48;4.30;99.90
17621;DHT22;8929;51.008;6.804;2022-12-05T03:50:21;4.30;99.90
17621;DHT22;8929;51.008;6.804;2022-12-05T03:52:50;4.30;99.90
17621;DHT22;8929;51.008;6.804;2022-12-05T03:55:18;4.30;99.90
17621;DHT22;8929;51.008;6.804;2022-12-05T03:57:45;4.20;99.90
17621;DHT22;8929;51.008;6.804;2022-12-05T04:00:13;4.20;99.90
17621;DHT22;8929;51.008;6.804;2022-12-05T04:05:17;4.20;99.90
17621;DHT22;8929;51.008;6.804;2022-12-05T04:07:45;4.20;99.90
17621;DHT22;8929;51.008;6.804;2022-12-05T04:10:15;4.20;99.90
17621;DHT22;8929;51.008;6.804;2022-12-05T04:12:42;4.20;99.90
17621;DHT22;8929;51.008;6.804;2022-12-05T04:15:12;4.20;99.90
17621;DHT22;8929;51.008;6.804;2022-12-05T04:17:52;4.10;99.90
17621;DHT22;8929;51.008;6.804;2022-12-05T04:20:37;4.10;99.90
17621;DHT22;8929;51.008;6.804;2022-12-05T04:23:22;4.10;99.90
17621;DHT22;8929;51.008;6.804;2022-12-05T04:25:50;4.10;99.90
17621;DHT22;8929;51.008;6.804;2022-12-05T04:28:31;4.00;99.90
17621;DHT22;8929;51.008;6.804;2022-12-05T04:31:13;4.00;99.90
17621;DHT22;8929;51.008;6.804;2022-12-05T04:33:44;4.00;99.90
17621;DHT22;8929;51.008;6.804;2022-12-05T04:38:38;3.90;99.90
17621;DHT22;8929;51.008;6.804;2022-12-05T04:41:06;3.90;99.90
17621;DHT22;8929;51.008;6.804;2022-12-05T04:43:34;3.80;99.90
17621;DHT22;8929;51.008;6.804;2022-12-05T04:46:02;3.80;99.90
17621;DHT22;8929;51.008;6.804;2022-12-05T04:48:29;3.70;99.90
17621;DHT22;8929;51.008;6.804;2022-12-05T04:50:55;3.70;99.90
17621;DHT22;8929;51.008;6.804;2022-12-05T04:53:22;3.70;99.90
17621;DHT22;8929;51.008;6.804;2022-12-05T04:55:49;3.70;99.90
17621;DHT22;8929;51.008;6.804;2022-12-05T04:58:17;3.70;99.90
17621;DHT22;8929;51.008;6.804;2022-12-05T05:03:20;3.80;99.90
17621;DHT22;8929;51.008;6.804;2022-12-05T05:05:47;3.80;99.90
17621;DHT22;8929;51.008;6.804;2022-12-05T05:08:24;3.70;99.90
17621;DHT22;8929;51.008;6.804;2022-12-05T05:11:35;3.70;99.90
17621;DHT22;8929;51.008;6.804;2022-12-05T05:13:35;3.70;99.90
17621;DHT22;8929;51.008;6.804;2022-12-05T05:16:01;3.60;99.90
17621;DHT22;8929;51.008;6.804;2022-12-05T05:18:26;3.60;99.90
17621;DHT22;8929;51.008;6.804;2022-12-05T05:20:52;3.60;99.90
17621;DHT22;8929;51.008;6.804;2022-12-05T05:23:17;3.60;99.90
17621;DHT22;8929;51.008;6.804;2022-12-05T05:25:43;3.60;99.90
17621;DHT22;8929;51.008;6.804;2022-12-05T05:28:08;3.60;99.90
17621;DHT22;8929;51.008;6.804;2022-12-05T05:30:34;3.70;99.90
17621;DHT22;8929;51.008;6.804;2022-12-05T05:32:59;3.70;99.90
17621;DHT22;8929;51.008;6.804;2022-12-05T05:35:25;3.70;99.90
17621;DHT22;8929;51.008;6.804;2022-12-05T05:37:50;3.70;99.90
17621;DHT22;8929;51.008;6.804;2022-12-05T05:40:16;3.70;99.90
17621;DHT22;8929;51.008;6.804;2022-12-05T05:42:42;3.60;99.90
17621;DHT22;8929;51.008;6.804;2022-12-05T05:45:08;3.60;99.90
17621;DHT22;8929;51.008;6.804;2022-12-05T05:47:34;3.60;99.90
17621;DHT22;8929;51.008;6.804;2022-12-05T05:49:59;3.60;99.90
17621;DHT22;8929;51.008;6.804;2022-12-05T05:52:24;3.60;99.90
17621;DHT22;8929;51.008;6.804;2022-12-05T05:54:50;3.50;99.90
17621;DHT22;8929;51.008;6.804;2022-12-05T05:57:15;3.50;99.90
17621;DHT22;8929;51.008;6.804;2022-12-05T05:59:41;3.50;99.90
17621;DHT22;8929;51.008;6.804;2022-12-05T06:02:06;3.50;99.90
17621;DHT22;8929;51.008;6.804;2022-12-05T06:04:33;3.50;99.90
17621;DHT22;8929;51.008;6.804;2022-12-05T06:06:58;3.50;99.90
17621;DHT22;8929;51.008;6.804;2022-12-05T06:09:24;3.50;99.90
17621;DHT22;8929;51.008;6.804;2022-12-05T06:11:49;3.50;99.90
17621;DHT22;8929;51.008;6.804;2022-12-05T06:14:15;3.50;99.90
17621;DHT22;8929;51.008;6.804;2022-12-05T06:16:40;3.50;99.90
17621;DHT22;8929;51.008;6.804;2022-12-05T06:19:06;3.50;99.90
17621;DHT22;8929;51.008;6.804;2022-12-05T06:21:31;3.40;99.90
17621;DHT22;8929;51.008;6.804;2022-12-05T06:23:57;3.40;99.90
17621;DHT22;8929;51.008;6.804;2022-12-05T06:26:22;3.40;99.90
17621;DHT22;8929;51.008;6.804;2022-12-05T06:28:48;3.40;99.90
17621;DHT22;8929;51.008;6.804;2022-12-05T06:31:14;3.40;99.90
17621;DHT22;8929;51.008;6.804;2022-12-05T06:33:40;3.40;99.90
17621;DHT22;8929;51.008;6.804;2022-12-05T06:36:10;3.30;99.90
17621;DHT22;8929;51.008;6.804;2022-12-05T06:38:36;3.30;99.90
17621;DHT22;8929;51.008;6.804;2022-12-05T06:41:05;3.30;99.90
17621;DHT22;8929;51.008;6.804;2022-12-05T06:43:31;3.20;99.90
17621;DHT22;8929;51.008;6.804;2022-12-05T06:45:56;3.10;99.90
17621;DHT22;8929;51.008;6.804;2022-12-05T06:48:22;3.10;99.90
17621;DHT22;8929;51.008;6.804;2022-12-05T06:50:51;3.00;99.90
17621;DHT22;8929;51.008;6.804;2022-12-05T06:53:17;3.00;99.90
17621;DHT22;8929;51.008;6.804;2022-12-05T06:55:43;3.00;99.90
17621;DHT22;8929;51.008;6.804;2022-12-05T06:58:09;2.90;99.90
17621;DHT22;8929;51.008;6.804;2022-12-05T07:00:34;2.90;99.90
17621;DHT22;8929;51.008;6.804;2022-12-05T07:03:18;2.90;99.90
17621;DHT22;8929;51.008;6.804;2022-12-05T07:05:44;2.90;99.90
17621;DHT22;8929;51.008;6.804;2022-12-05T07:08:09;2.90;99.90
17621;DHT22;8929;51.008;6.804;2022-12-05T07:10:35;2.90;99.90
17621;DHT22;8929;51.008;6.804;2022-12-05T07:13:00;2.80;99.90
17621;DHT22;8929;51.008;6.804;2022-12-05T07:15:26;2.90;99.90
17621;DHT22;8929;51.008;6.804;2022-12-05T07:17:51;2.90;99.90
17621;DHT22;8929;51.008;6.804;2022-12-05T07:20:16;2.90;99.90
17621;DHT22;8929;51.008;6.804;2022-12-05T07:22:42;2.90;99.90
17621;DHT22;8929;51.008;6.804;2022-12-05T07:25:08;2.90;99.90
17621;DHT22;8929;51.008;6.804;2022-12-05T07:27:33;2.90;99.90
17621;DHT22;8929;51.008;6.804;2022-12-05T07:29:59;3.00;99.90
17621;DHT22;8929;51.008;6.804;2022-12-05T07:32:24;2.90;99.90
17621;DHT22;8929;51.008;6.804;2022-12-05T07:34:50;3.00;99.90
17621;DHT22;8929;51.008;6.804;2022-12-05T07:37:15;3.00;99.90
17621;DHT22;8929;51.008;6.804;2022-12-05T07:39:41;3.00;99.90
17621;DHT22;8929;51.008;6.804;2022-12-05T07:42:06;3.00;99.90
17621;DHT22;8929;51.008;6.804;2022-12-05T07:44:32;3.10;99.90
17621;DHT22;8929;51.008;6.804;2022-12-05T07:46:58;3.10;99.90
17621;DHT22;8929;51.008;6.804;2022-12-05T07:49:23;3.10;99.90
17621;DHT22;8929;51.008;6.804;2022-12-05T07:51:49;3.10;99.90
17621;DHT22;8929;51.008;6.804;2022-12-05T07:54:14;3.10;99.90
17621;DHT22;8929;51.008;6.804;2022-12-05T07:56:40;3.20;99.90
17621;DHT22;8929;51.008;6.804;2022-12-05T07:59:05;3.20;99.90
17621;DHT22;8929;51.008;6.804;2022-12-05T08:01:31;3.20;99.90
17621;DHT22;8929;51.008;6.804;2022-12-05T08:03:57;3.30;99.90
17621;DHT22;8929;51.008;6.804;2022-12-05T08:06:24;3.30;99.90
17621;DHT22;8929;51.008;6.804;2022-12-05T08:08:50;3.30;99.90
17621;DHT22;8929;51.008;6.804;2022-12-05T08:11:17;3.30;99.90
17621;DHT22;8929;51.008;6.804;2022-12-05T08:13:43;3.30;99.90
17621;DHT22;8929;51.008;6.804;2022-12-05T08:16:09;3.30;99.90
17621;DHT22;8929;51.008;6.804;2022-12-05T08:18:35;3.40;99.90
17621;DHT22;8929;51.008;6.804;2022-12-05T08:21:04;3.40;99.90
17621;DHT22;8929;51.008;6.804;2022-12-05T08:23:30;3.40;99.90
17621;DHT22;8929;51.008;6.804;2022-12-05T08:25:59;3.50;99.90
17621;DHT22;8929;51.008;6.804;2022-12-05T08:28:25;3.50;99.90
17621;DHT22;8929;51.008;6.804;2022-12-05T08:30:50;3.60;99.90
17621;DHT22;8929;51.008;6.804;2022-12-05T08:33:16;3.60;99.90
17621;DHT22;8929;51.008;6.804;2022-12-05T08:35:42;3.60;99.90
17621;DHT22;8929;51.008;6.804;2022-12-05T08:38:07;3.60;99.90
17621;DHT22;8929;51.008;6.804;2022-12-05T08:40:32;3.60;99.90
17621;DHT22;8929;51.008;6.804;2022-12-05T08:42:58;3.70;99.90
17621;DHT22;8929;51.008;6.804;2022-12-05T08:45:23;3.70;99.90
17621;DHT22;8929;51.008;6.804;2022-12-05T08:47:49;3.60;99.90
17621;DHT22;8929;51.008;6.804;2022-12-05T08:50:14;3.70;99.90
17621;DHT22;8929;51.008;6.804;2022-12-05T08:52:40;3.60;99.90
17621;DHT22;8929;51.008;6.804;2022-12-05T08:55:05;3.60;99.90
17621;DHT22;8929;51.008;6.804;2022-12-05T08:57:31;3.60;99.90
17621;DHT22;8929;51.008;6.804;2022-12-05T08:59:57;3.60;99.90
17621;DHT22;8929;51.008;6.804;2022-12-05T09:02:22;3.70;99.90
17621;DHT22;8929;51.008;6.804;2022-12-05T09:04:49;3.70;99.90
17621;DHT22;8929;51.008;6.804;2022-12-05T09:07:15;3.70;99.90
17621;DHT22;8929;51.008;6.804;2022-12-05T09:09:40;3.70;99.90
17621;DHT22;8929;51.008;6.804;2022-12-05T09:12:06;3.80;99.90
17621;DHT22;8929;51.008;6.804;2022-12-05T09:14:31;3.80;99.90
17621;DHT22;8929;51.008;6.804;2022-12-05T09:16:57;3.80;99.90
17621;DHT22;8929;51.008;6.804;2022-12-05T09:19:23;3.90;99.90
17621;DHT22;8929;51.008;6.804;2022-12-05T09:21:50;3.90;99.90
17621;DHT22;8929;51.008;6.804;2022-12-05T09:24:15;3.90;99.90
17621;DHT22;8929;51.008;6.804;2022-12-05T09:26:42;3.90;99.90
17621;DHT22;8929;51.008;6.804;2022-12-05T09:29:08;4.00;99.90
17621;DHT22;8929;51.008;6.804;2022-12-05T09:31:33;4.00;99.90
17621;DHT22;8929;51.008;6.804;2022-12-05T09:33:59;4.00;99.90
17621;DHT22;8929;51.008;6.804;2022-12-05T09:36:26;4.00;99.90
17621;DHT22;8929;51.008;6.804;2022-12-05T09:38:52;4.00;99.90
17621;DHT22;8929;51.008;6.804;2022-12-05T09:44:25;3.90;99.90
17621;DHT22;8929;51.008;6.804;2022-12-05T09:49:18;3.90;99.90
17621;DHT22;8929;51.008;6.804;2022-12-05T09:51:44;4.00;99.90
17621;DHT22;8929;51.008;6.804;2022-12-05T09:54:10;4.00;99.90
17621;DHT22;8929;51.008;6.804;2022-12-05T09:56:36;4.10;99.90
17621;DHT22;8929;51.008;6.804;2022-12-05T09:59:02;4.10;99.90
17621;DHT22;8929;51.008;6.804;2022-12-05T10:01:40;4.20;99.90
17621;DHT22;8929;51.008;6.804;2022-12-05T10:09:06;4.20;99.90
17621;DHT22;8929;51.008;6.804;2022-12-05T10:11:48;4.20;99.90
17621;DHT22;8929;51.008;6.804;2022-12-05T10:14:31;4.30;99.90
17621;DHT22;8929;51.008;6.804;2022-12-05T10:17:02;4.30;99.90
17621;DHT22;8929;51.008;6.804;2022-12-05T10:19:37;4.20;99.90
17621;DHT22;8929;51.008;6.804;2022-12-05T10:22:12;4.30;99.90
17621;DHT22;8929;51.008;6.804;2022-12-05T10:24:42;4.30;99.90
17621;DHT22;8929;51.008;6.804;2022-12-05T10:27:17;4.20;99.90
17621;DHT22;8929;51.008;6.804;2022-12-05T10:32:16;4.20;99.90
17621;DHT22;8929;51.008;6.804;2022-12-05T10:34:43;4.20;99.90
17621;DHT22;8929;51.008;6.804;2022-12-05T10:37:19;4.30;99.90
17621;DHT22;8929;51.008;6.804;2022-12-05T10:39:45;4.30;99.90
17621;DHT22;8929;51.008;6.804;2022-12-05T10:42:12;4.40;99.90
17621;DHT22;8929;51.008;6.804;2022-12-05T10:44:39;4.40;99.90
17621;DHT22;8929;51.008;6.804;2022-12-05T10:47:05;4.40;99.90
17621;DHT22;8929;51.008;6.804;2022-12-05T10:49:30;4.40;99.90
17621;DHT22;8929;51.008;6.804;2022-12-05T10:51:57;4.40;99.90
17621;DHT22;8929;51.008;6.804;2022-12-05T10:54:24;4.50;99.90
17621;DHT22;8929;51.008;6.804;2022-12-05T10:56:51;4.50;99.90
17621;DHT22;8929;51.008;6.804;2022-12-05T10:59:42;4.50;99.90
17621;DHT22;8929;51.008;6.804;2022-12-05T11:02:14;4.50;99.90
17621;DHT22;8929;51.008;6.804;2022-12-05T11:04:42;4.60;99.90
17621;DHT22;8929;51.008;6.804;2022-12-05T11:07:09;4.60;99.90
17621;DHT22;8929;51.008;6.804;2022-12-05T11:09:46;4.60;99.90
17621;DHT22;8929;51.008;6.804;2022-12-05T11:12:16;4.60;99.90
17621;DHT22;8929;51.008;6.804;2022-12-05T11:14:59;4.60;99.90
17621;DHT22;8929;51.008;6.804;2022-12-05T11:17:28;4.60;99.90
17621;DHT22;8929;51.008;6.804;2022-12-05T11:19:54;4.60;99.90
17621;DHT22;8929;51.008;6.804;2022-12-05T11:22:19;4.70;99.90
17621;DHT22;8929;51.008;6.804;2022-12-05T11:24:47;4.70;99.90
17621;DHT22;8929;51.008;6.804;2022-12-05T11:29:42;4.60;99.90
17621;DHT22;8929;51.008;6.804;2022-12-05T11:32:18;4.50;99.90
17621;DHT22;8929;51.008;6.804;2022-12-05T11:37:34;4.40;99.90
17621;DHT22;8929;51.008;6.804;2022-12-05T11:40:00;4.40;99.90
17621;DHT22;8929;51.008;6.804;2022-12-05T11:55:35;4.20;99.90
17621;DHT22;8929;51.008;6.804;2022-12-05T12:01:02;4.20;99.90
17621;DHT22;8929;51.008;6.804;2022-12-05T12:08:29;3.90;99.90
17621;DHT22;8929;51.008;6.804;2022-12-05T12:16:30;4.10;99.90
17621;DHT22;8929;51.008;6.804;2022-12-05T12:19:09;4.00;99.90
17621;DHT22;8929;51.008;6.804;2022-12-05T12:24:24;4.00;99.90
17621;DHT22;8929;51.008;6.804;2022-12-05T12:31:59;4.20;99.90
17621;DHT22;8929;51.008;6.804;2022-12-05T12:34:48;4.10;99.90
17621;DHT22;8929;51.008;6.804;2022-12-05T12:50:26;4.30;99.90
17621;DHT22;8929;51.008;6.804;2022-12-05T12:55:43;4.30;99.90
17621;DHT22;8929;51.008;6.804;2022-12-05T13:00:57;4.20;99.90
17621;DHT22;8929;51.008;6.804;2022-12-05T13:03:41;4.10;99.90
17621;DHT22;8929;51.008;6.804;2022-12-05T13:06:13;4.00;99.90
17621;DHT22;8929;51.008;6.804;2022-12-05T13:08:42;4.10;99.90
17621;DHT22;8929;51.008;6.804;2022-12-05T13:11:10;4.10;99.90
17621;DHT22;8929;51.008;6.804;2022-12-05T13:13:45;4.20;99.90
17621;DHT22;8929;51.008;6.804;2022-12-05T13:16:15;4.20;99.90
17621;DHT22;8929;51.008;6.804;2022-12-05T13:18:45;4.10;99.90
17621;DHT22;8929;51.008;6.804;2022-12-05T13:21:11;4.00;99.90
17621;DHT22;8929;51.008;6.804;2022-12-05T13:23:45;4.10;99.90
17621;DHT22;8929;51.008;6.804;2022-12-05T13:26:11;4.10;99.90
17621;DHT22;8929;51.008;6.804;2022-12-05T13:28:38;4.10;99.90
17621;DHT22;8929;51.008;6.804;2022-12-05T13:31:08;4.10;99.90
17621;DHT22;8929;51.008;6.804;2022-12-05T13:33:35;4.10;99.90
17621;DHT22;8929;51.008;6.804;2022-12-05T13:36:08;4.10;99.90
17621;DHT22;8929;51.008;6.804;2022-12-05T13:39:38;4.00;99.90
17621;DHT22;8929;51.008;6.804;2022-12-05T13:41:57;4.10;99.90
17621;DHT22;8929;51.008;6.804;2022-12-05T13:47:18;4.10;99.90
17621;DHT22;8929;51.008;6.804;2022-12-05T13:49:52;4.10;99.90
17621;DHT22;8929;51.008;6.804;2022-12-05T13:52:20;4.00;99.90
17621;DHT22;8929;51.008;6.804;2022-12-05T13:54:50;4.10;99.90
17621;DHT22;8929;51.008;6.804;2022-12-05T14:05:31;3.90;99.90
17621;DHT22;8929;51.008;6.804;2022-12-05T14:07:55;3.90;99.90
17621;DHT22;8929;51.008;6.804;2022-12-05T14:12:56;3.90;99.90
17621;DHT22;8929;51.008;6.804;2022-12-05T14:18:04;3.90;99.90
17621;DHT22;8929;51.008;6.804;2022-12-05T14:31:15;3.90;99.90
17621;DHT22;8929;51.008;6.804;2022-12-05T14:33:44;3.80;99.90
17621;DHT22;8929;51.008;6.804;2022-12-05T14:36:14;3.80;99.90
17621;DHT22;8929;51.008;6.804;2022-12-05T14:38:41;3.70;99.90
17621;DHT22;8929;51.008;6.804;2022-12-05T14:41:23;3.70;99.90
17621;DHT22;8929;51.008;6.804;2022-12-05T14:43:51;3.70;99.90
17621;DHT22;8929;51.008;6.804;2022-12-05T14:46:23;3.60;99.90
17621;DHT22;8929;51.008;6.804;2022-12-05T14:48:49;3.60;99.90
17621;DHT22;8929;51.008;6.804;2022-12-05T14:54:05;3.50;99.90
17621;DHT22;8929;51.008;6.804;2022-12-05T14:56:39;3.50;99.90
17621;DHT22;8929;51.008;6.804;2022-12-05T14:59:25;3.50;99.90
17621;DHT22;8929;51.008;6.804;2022-12-05T15:01:56;3.40;99.90
17621;DHT22;8929;51.008;6.804;2022-12-05T15:04:35;3.40;99.90
17621;DHT22;8929;51.008;6.804;2022-12-05T15:07:14;3.40;99.90
17621;DHT22;8929;51.008;6.804;2022-12-05T15:09:42;3.40;99.90
17621;DHT22;8929;51.008;6.804;2022-12-05T15:12:11;3.30;99.90
17621;DHT22;8929;51.008;6.804;2022-12-05T15:14:42;3.40;99.90
17621;DHT22;8929;51.008;6.804;2022-12-05T15:17:10;3.40;99.90
17621;DHT22;8929;51.008;6.804;2022-12-05T15:19:50;3.40;99.90
17621;DHT22;8929;51.008;6.804;2022-12-05T15:22:15;3.40;99.90
17621;DHT22;8929;51.008;6.804;2022-12-05T15:24:42;3.50;99.90
17621;DHT22;8929;51.008;6.804;2022-12-05T15:27:09;3.40;99.90
17621;DHT22;8929;51.008;6.804;2022-12-05T15:29:38;3.50;99.90
17621;DHT22;8929;51.008;6.804;2022-12-05T15:34:41;3.40;99.90
17621;DHT22;8929;51.008;6.804;2022-12-05T15:42:18;3.40;99.90
17621;DHT22;8929;51.008;6.804;2022-12-05T15:44:44;3.40;99.90
17621;DHT22;8929;51.008;6.804;2022-12-05T15:47:17;3.30;99.90
17621;DHT22;8929;51.008;6.804;2022-12-05T15:49:43;3.30;99.90
17621;DHT22;8929;51.008;6.804;2022-12-05T15:52:22;3.40;99.90
17621;DHT22;8929;51.008;6.804;2022-12-05T15:54:49;3.40;99.90
17621;DHT22;8929;51.008;6.804;2022-12-05T15:57:17;3.40;99.90
17621;DHT22;8929;51.008;6.804;2022-12-05T15:59:46;3.40;99.90
17621;DHT22;8929;51.008;6.804;2022-12-05T16:02:14;3.30;99.90
17621;DHT22;8929;51.008;6.804;2022-12-05T16:04:45;3.30;99.90
17621;DHT22;8929;51.008;6.804;2022-12-05T16:07:13;3.20;99.90
17621;DHT22;8929;51.008;6.804;2022-12-05T16:09:40;3.30;99.90
17621;DHT22;8929;51.008;6.804;2022-12-05T16:12:14;3.10;99.90
17621;DHT22;8929;51.008;6.804;2022-12-05T16:14:41;3.20;99.90
17621;DHT22;8929;51.008;6.804;2022-12-05T16:17:07;3.20;99.90
17621;DHT22;8929;51.008;6.804;2022-12-05T16:19:37;3.20;99.90
17621;DHT22;8929;51.008;6.804;2022-12-05T16:24:42;3.10;99.90
17621;DHT22;8929;51.008;6.804;2022-12-05T16:29:41;3.10;99.90
17621;DHT22;8929;51.008;6.804;2022-12-05T16:32:15;3.10;99.90
17621;DHT22;8929;51.008;6.804;2022-12-05T16:34:42;3.00;99.90
17621;DHT22;8929;51.008;6.804;2022-12-05T16:37:12;3.10;99.90
17621;DHT22;8929;51.008;6.804;2022-12-05T16:39:43;3.00;99.90
17621;DHT22;8929;51.008;6.804;2022-12-05T16:45:04;2.90;99.90
17621;DHT22;8929;51.008;6.804;2022-12-05T16:47:51;2.90;99.90
17621;DHT22;8929;51.008;6.804;2022-12-05T16:52:46;2.90;99.90
17621;DHT22;8929;51.008;6.804;2022-12-05T16:55:12;2.90;99.90
17621;DHT22;8929;51.008;6.804;2022-12-05T16:57:38;2.90;99.90
17621;DHT22;8929;51.008;6.804;2022-12-05T17:00:04;2.80;99.90
17621;DHT22;8929;51.008;6.804;2022-12-05T17:02:30;2.80;99.90
17621;DHT22;8929;51.008;6.804;2022-12-05T17:04:56;2.80;99.90
17621;DHT22;8929;51.008;6.804;2022-12-05T17:07:22;2.90;99.90
17621;DHT22;8929;51.008;6.804;2022-12-05T17:09:47;2.80;99.90
17621;DHT22;8929;51.008;6.804;2022-12-05T17:12:15;2.80;99.90
17621;DHT22;8929;51.008;6.804;2022-12-05T17:14:42;2.80;99.90
17621;DHT22;8929;51.008;6.804;2022-12-05T17:17:11;2.80;99.90
17621;DHT22;8929;51.008;6.804;2022-12-05T17:19:37;2.70;99.90
17621;DHT22;8929;51.008;6.804;2022-12-05T17:22:03;2.70;99.90
17621;DHT22;8929;51.008;6.804;2022-12-05T17:24:30;2.70;99.90
17621;DHT22;8929;51.008;6.804;2022-12-05T17:26:56;2.60;99.90
17621;DHT22;8929;51.008;6.804;2022-12-05T17:29:21;2.60;99.90
17621;DHT22;8929;51.008;6.804;2022-12-05T17:31:47;2.60;99.90
17621;DHT22;8929;51.008;6.804;2022-12-05T17:34:15;2.50;99.90
17621;DHT22;8929;51.008;6.804;2022-12-05T17:36:42;2.50;99.90
17621;DHT22;8929;51.008;6.804;2022-12-05T17:39:07;2.50;99.90
17621;DHT22;8929;51.008;6.804;2022-12-05T17:41:33;2.50;99.90
17621;DHT22;8929;51.008;6.804;2022-12-05T17:43:59;2.50;99.90
17621;DHT22;8929;51.008;6.804;2022-12-05T17:46:24;2.60;99.90
17621;DHT22;8929;51.008;6.804;2022-12-05T17:48:50;2.60;99.90
17621;DHT22;8929;51.008;6.804;2022-12-05T17:51:16;2.60;99.90
17621;DHT22;8929;51.008;6.804;2022-12-05T17:53:42;2.60;99.90
17621;DHT22;8929;51.008;6.804;2022-12-05T17:56:08;2.60;99.90
17621;DHT22;8929;51.008;6.804;2022-12-05T17:58:34;2.70;99.90
17621;DHT22;8929;51.008;6.804;2022-12-05T18:00:59;2.70;99.90
17621;DHT22;8929;51.008;6.804;2022-12-05T18:03:26;2.70;99.90
17621;DHT22;8929;51.008;6.804;2022-12-05T18:05:52;2.70;99.90
17621;DHT22;8929;51.008;6.804;2022-12-05T18:08:17;2.70;99.90
17621;DHT22;8929;51.008;6.804;2022-12-05T18:10:43;2.70;99.90
17621;DHT22;8929;51.008;6.804;2022-12-05T18:13:09;2.80;99.90
17621;DHT22;8929;51.008;6.804;2022-12-05T18:15:35;2.90;99.90
17621;DHT22;8929;51.008;6.804;2022-12-05T18:18:01;2.90;99.90
17621;DHT22;8929;51.008;6.804;2022-12-05T18:20:27;2.90;99.90
17621;DHT22;8929;51.008;6.804;2022-12-05T18:22:53;3.00;99.90
17621;DHT22;8929;51.008;6.804;2022-12-05T18:25:19;2.90;99.90
17621;DHT22;8929;51.008;6.804;2022-12-05T18:27:44;2.90;99.90
17621;DHT22;8929;51.008;6.804;2022-12-05T18:30:10;3.00;99.90
17621;DHT22;8929;51.008;6.804;2022-12-05T18:32:36;3.00;99.90
17621;DHT22;8929;51.008;6.804;2022-12-05T18:35:02;3.00;99.90
17621;DHT22;8929;51.008;6.804;2022-12-05T18:37:27;3.10;99.90
17621;DHT22;8929;51.008;6.804;2022-12-05T18:39:53;3.10;99.90
17621;DHT22;8929;51.008;6.804;2022-12-05T18:42:20;3.10;99.90